Time;durP1;ratioP1;P1;durP2;ratioP2;P2;SDS_P1;SDS_P2;PMS_P1;PMS_P2;Temp;Humidity;BMP_temperature;BMP_pressure;BME280_temperature;BME280_humidity;BME280_pressure;Samples;Min_cycle;Max_cycle;Signal;HPM_P1;HPM_P2
2022/10/24 00:02:21;;;;;;;2.40;2.05;;;15.90;99.90;;;;;;5050560;28;20039;-89
2022/10/24 00:04:47;;;;;;;5.75;1.73;;;15.90;99.90;;;;;;5050262;28;20036;-89
2022/10/24 00:07:13;;;;;;;6.10;1.75;;;15.90;99.90;;;;;;5066796;28;20029;-89
2022/10/24 00:09:40;;;;;;;4.13;1.83;;;;;;;;;;5050595;28;20374;-89
2022/10/24 00:12:06;;;;;;;6.13;2.58;;;;;;;;;;5066853;28;20088;-89
2022/10/24 00:14:33;;;;;;;5.50;2.55;;;15.90;99.90;;;;;;5067493;28;20025;-89
2022/10/24 00:17:00;;;;;;;10.85;1.90;;;;;;;;;;5066982;28;20044;-89
2022/10/24 00:19:26;;;;;;;5.78;2.10;;;15.90;99.90;;;;;;5066708;28;20037;-89
2022/10/24 00:21:52;;;;;;;1.95;1.58;;;;;;;;;;5067973;28;20032;-89
2022/10/24 00:24:18;;;;;;;2.13;1.77;;;15.90;99.90;;;;;;5050271;28;20017;-89
2022/10/24 00:26:47;;;;;;;2.10;1.55;;;15.90;99.90;;;;;;5049606;28;20095;-89
2022/10/24 00:29:13;;;;;;;3.58;1.63;;;;;;;;;;5066516;28;20056;-89
2022/10/24 00:31:39;;;;;;;6.45;2.80;;;15.90;99.90;;;;;;5066668;28;20029;-88
2022/10/24 00:34:05;;;;;;;2.83;2.08;;;;;;;;;;5066540;28;20033;-89
2022/10/24 00:36:31;;;;;;;3.35;1.98;;;15.90;99.90;;;;;;5066191;28;20032;-89
2022/10/24 00:38:57;;;;;;;4.53;2.35;;;;;;;;;;5049636;28;20031;-89
2022/10/24 00:41:30;;;;;;;5.90;2.13;;;15.90;99.90;;;;;;5066322;28;20171;-88
2022/10/24 00:44:20;;;;;;;1.70;1.60;;;15.90;99.90;;;;;;5067511;28;20061;-89
2022/10/24 00:46:50;;;;;;;3.38;1.88;;;15.90;99.90;;;;;;5047681;28;20048;-89
2022/10/24 00:49:21;;;;;;;9.65;2.30;;;15.80;99.90;;;;;;5045981;28;20056;-89
2022/10/24 00:51:52;;;;;;;6.00;2.47;;;15.80;99.90;;;;;;5046316;28;20029;-89
2022/10/24 00:54:18;;;;;;;2.15;1.33;;;15.90;99.90;;;;;;5029737;28;20032;-89
2022/10/24 00:56:55;;;;;;;4.65;3.08;;;15.80;99.90;;;;;;5045902;28;20033;-89
2022/10/24 00:59:22;;;;;;;4.82;2.10;;;15.80;99.90;;;;;;5032765;28;20021;-89
2022/10/24 01:01:48;;;;;;;2.50;2.00;;;15.80;99.90;;;;;;5046032;28;20045;-89
2022/10/24 01:04:14;;;;;;;10.02;2.88;;;15.90;99.90;;;;;;5061505;28;20025;-88
2022/10/24 01:07:02;;;;;;;2.10;2.00;;;15.90;99.90;;;;;;5049012;28;20127;-88
2022/10/24 01:09:40;;;;;;;5.00;2.42;;;15.80;99.90;;;;;;5045687;28;20030;-88
2022/10/24 01:12:17;;;;;;;3.97;2.00;;;15.90;99.90;;;;;;5045725;28;20040;-89
2022/10/24 01:15:02;;;;;;;3.45;2.60;;;15.90;99.90;;;;;;5046915;28;20116;-90
2022/10/24 01:17:38;;;;;;;6.10;2.33;;;15.90;99.90;;;;;;5048656;28;20017;-89
2022/10/24 01:20:04;;;;;;;4.05;2.25;;;;;;;;;;5045381;28;20018;-89
2022/10/24 01:22:50;;;;;;;5.00;2.25;;;15.90;99.90;;;;;;5045038;28;20022;-88
2022/10/24 01:25:41;;;;;;;1.90;1.65;;;15.90;99.90;;;;;;5062099;28;20036;-89
2022/10/24 01:28:14;;;;;;;3.50;1.92;;;15.90;99.90;;;;;;5046655;28;20049;-89
2022/10/24 01:30:48;;;;;;;7.78;2.45;;;15.90;99.90;;;;;;5046617;28;20064;-88
2022/10/24 01:33:15;;;;;;;1.90;1.80;;;;;;;;;;5046689;28;20120;-89
2022/10/24 01:35:52;;;;;;;5.03;2.72;;;15.90;99.90;;;;;;5048451;28;20459;-89
2022/10/24 01:38:37;;;;;;;5.22;2.65;;;15.90;99.90;;;;;;5065308;28;20036;-89
2022/10/24 01:41:12;;;;;;;5.28;2.15;;;15.90;99.90;;;;;;5065325;28;20033;-88
2022/10/24 01:44:01;;;;;;;3.85;1.95;;;15.90;99.90;;;;;;5065918;28;20062;-89
2022/10/24 01:46:32;;;;;;;1.05;0.95;;;15.90;99.90;;;;;;5066283;28;20036;-89
2022/10/24 01:49:05;;;;;;;2.03;1.20;;;15.90;99.90;;;;;;5066297;28;20367;-89
2022/10/24 01:51:34;;;;;;;4.35;1.73;;;15.90;99.90;;;;;;5065009;28;20037;-88
2022/10/24 01:54:00;;;;;;;3.97;1.88;;;;;;;;;;5065883;28;20035;-89
2022/10/24 01:56:26;;;;;;;2.55;1.02;;;15.80;99.90;;;;;;5064690;28;20036;-88
2022/10/24 01:58:52;;;;;;;3.53;1.60;;;;;;;;;;5066109;28;20113;-88
2022/10/24 02:01:23;;;;;;;2.30;1.67;;;15.90;99.90;;;;;;5066269;28;20040;-89
2022/10/24 02:03:56;;;;;;;4.75;1.80;;;15.80;99.90;;;;;;5066058;28;20088;-89
2022/10/24 02:06:28;;;;;;;3.35;1.50;;;15.80;99.90;;;;;;5066372;28;20029;-88
2022/10/24 02:08:58;;;;;;;1.42;1.33;;;15.80;99.90;;;;;;5064792;28;20045;-89
2022/10/24 02:11:25;;;;;;;1.13;1.00;;;;;;;;;;5064795;28;20428;-89
2022/10/24 02:13:51;;;;;;;5.03;1.50;;;;;;;;;;5066016;28;20025;-89
2022/10/24 02:16:18;;;;;;;4.00;2.22;;;15.80;99.90;;;;;;5064452;28;20029;-89
2022/10/24 02:18:47;;;;;;;5.00;1.98;;;15.80;99.90;;;;;;5064585;28;20053;-88
2022/10/24 02:21:35;;;;;;;3.90;1.45;;;15.80;99.90;;;;;;5064566;28;20462;-89
2022/10/24 02:24:16;;;;;;;2.55;1.15;;;15.80;99.90;;;;;;5064654;28;20085;-89
2022/10/24 02:27:02;;;;;;;3.15;1.60;;;15.80;99.90;;;;;;5064542;28;20041;-89
2022/10/24 02:29:57;;;;;;;6.95;1.55;;;15.80;99.90;;;;;;5064623;28;20029;-88
2022/10/24 02:32:32;;;;;;;3.90;1.55;;;15.80;99.90;;;;;;5064554;28;20039;-87
2022/10/24 02:35:00;;;;;;;3.92;1.27;;;15.80;99.90;;;;;;5066110;28;20033;-89
2022/10/24 02:37:29;;;;;;;4.03;1.40;;;15.80;99.90;;;;;;5068586;28;20087;-89
2022/10/24 02:39:56;;;;;;;2.85;0.93;;;15.80;99.90;;;;;;5069105;28;20028;-89
2022/10/24 02:42:24;;;;;;;9.55;2.05;;;15.80;99.90;;;;;;5068385;28;20029;-88
2022/10/24 02:44:50;;;;;;;5.13;1.35;;;;;;;;;;5051565;28;20017;-90
2022/10/24 02:47:18;;;;;;;1.70;1.33;;;15.80;99.90;;;;;;5069661;28;20033;-89
2022/10/24 02:49:45;;;;;;;1.75;0.90;;;15.80;99.90;;;;;;5069400;28;20029;-88
2022/10/24 02:52:11;;;;;;;3.22;1.25;;;15.80;99.90;;;;;;5068552;28;20017;-88
2022/10/24 02:54:37;;;;;;;1.40;1.30;;;15.80;99.90;;;;;;5051711;28;20033;-88
2022/10/24 02:57:03;;;;;;;1.73;1.63;;;15.80;99.90;;;;;;5068303;28;20044;-89
2022/10/24 02:59:29;;;;;;;2.70;1.10;;;15.80;99.90;;;;;;5067925;28;20020;-88
2022/10/24 03:01:55;;;;;;;3.55;1.30;;;;;;;;;;5069523;28;20086;-89
2022/10/24 03:04:22;;;;;;;2.78;1.40;;;;;;;;;;5067925;28;20127;-89
2022/10/24 03:06:48;;;;;;;3.10;1.38;;;;;;;;;;5069235;28;20025;-89
2022/10/24 03:09:14;;;;;;;2.38;1.13;;;;;;;;;;5067893;28;20029;-88
2022/10/24 03:11:40;;;;;;;3.50;1.27;;;15.80;99.90;;;;;;5067641;28;20040;-89
2022/10/24 03:14:06;;;;;;;5.40;1.30;;;15.80;99.90;;;;;;5069043;28;20029;-89
2022/10/24 03:16:32;;;;;;;2.50;0.98;;;15.80;99.90;;;;;;5051402;28;20044;-88
2022/10/24 03:18:58;;;;;;;3.00;1.50;;;;;;;;;;5067964;28;20029;-88
2022/10/24 03:21:24;;;;;;;2.47;0.98;;;;;;;;;;5051128;28;20028;-88
2022/10/24 03:23:51;;;;;;;2.58;1.00;;;;;;;;;;5069095;28;20029;-88
2022/10/24 03:26:17;;;;;;;5.20;1.83;;;;;;;;;;5067757;28;20089;-89
2022/10/24 03:28:42;;;;;;;5.03;1.50;;;15.80;99.90;;;;;;5066690;28;20041;-89
2022/10/24 03:31:09;;;;;;;5.35;0.82;;;15.80;99.90;;;;;;5066472;28;20175;-88
2022/10/24 03:33:35;;;;;;;3.97;1.20;;;;;;;;;;5066225;28;20484;-89
2022/10/24 03:36:01;;;;;;;1.85;0.88;;;;;;;;;;5067583;28;20037;-88
2022/10/24 03:38:27;;;;;;;4.72;2.03;;;;;;;;;;5066432;28;20033;-89
2022/10/24 03:40:54;;;;;;;3.30;1.17;;;;;;;;;;5065859;28;20071;-90
2022/10/24 03:43:20;;;;;;;5.55;2.55;;;;;;;;;;5049740;28;20059;-88
2022/10/24 03:45:46;;;;;;;1.50;1.35;;;;;;;;;;5049437;28;20398;-89
2022/10/24 03:48:13;;;;;;;1.13;0.90;;;15.80;99.90;;;;;;5049661;28;20159;-89
2022/10/24 03:50:39;;;;;;;1.73;1.63;;;15.80;99.90;;;;;;5065882;28;20083;-89
2022/10/24 03:53:05;;;;;;;0.73;0.73;;;;;;;;;;5049501;28;20055;-89
2022/10/24 03:55:32;;;;;;;10.88;1.90;;;;;;;;;;5066041;28;20033;-88
2022/10/24 03:57:58;;;;;;;8.10;1.35;;;;;;;;;;5050683;28;20104;-88
2022/10/24 04:00:26;;;;;;;2.28;1.17;;;15.70;99.90;;;;;;5066176;28;20080;-89
2022/10/24 04:02:53;;;;;;;6.18;1.92;;;;;;;;;;5066237;28;20127;-88
2022/10/24 04:05:19;;;;;;;1.23;1.08;;;;;;;;;;5048948;28;20025;-89
2022/10/24 04:07:45;;;;;;;2.42;1.13;;;;;;;;;;5065003;28;20025;-89
2022/10/24 04:10:12;;;;;;;4.80;1.10;;;;;;;;;;5065423;28;20078;-88
2022/10/24 04:12:38;;;;;;;6.30;1.30;;;;;;;;;;5065465;28;20029;-89
2022/10/24 04:15:04;;;;;;;2.10;1.50;;;15.70;99.90;;;;;;5065230;28;20029;-88
2022/10/24 04:17:30;;;;;;;2.35;1.00;;;15.70;99.90;;;;;;5066438;28;20029;-89
2022/10/24 04:19:56;;;;;;;2.85;0.77;;;;;;;;;;5048828;28;20112;-88
2022/10/24 04:22:23;;;;;;;8.90;2.17;;;;;;;;;;5065246;28;20036;-89
2022/10/24 04:24:49;;;;;;;1.95;1.20;;;15.70;99.90;;;;;;5066447;28;20083;-89
2022/10/24 04:27:15;;;;;;;3.97;1.55;;;;;;;;;;5024297;28;780707;-88
2022/10/24 04:29:42;;;;;;;1.33;1.23;;;15.70;99.90;;;;;;5049896;28;20033;-89
2022/10/24 04:32:08;;;;;;;1.88;0.60;;;;;;;;;;5065665;28;20021;-89
2022/10/24 04:34:37;;;;;;;1.42;1.02;;;15.70;99.90;;;;;;5065035;28;20474;-89
2022/10/24 04:37:03;;;;;;;2.35;1.40;;;;;;;;;;5066937;28;20021;-89
2022/10/24 04:39:29;;;;;;;1.63;0.82;;;;;;;;;;5065709;28;20063;-89
2022/10/24 04:41:55;;;;;;;2.65;1.52;;;15.70;99.90;;;;;;5066272;28;20466;-87
2022/10/24 04:44:21;;;;;;;2.90;1.65;;;15.70;99.90;;;;;;5066132;28;20059;-89
2022/10/24 04:46:49;;;;;;;0.95;0.90;;;15.70;99.90;;;;;;5065995;28;20069;-89
2022/10/24 04:49:15;;;;;;;3.20;1.05;;;;;;;;;;5061090;28;20025;-88
2022/10/24 04:51:41;;;;;;;2.72;1.58;;;15.70;99.90;;;;;;5046566;28;20489;-88
2022/10/24 04:54:07;;;;;;;4.68;1.67;;;15.70;99.90;;;;;;5062352;28;20021;-89
2022/10/24 04:56:33;;;;;;;1.95;1.02;;;15.70;99.90;;;;;;5063090;28;20028;-88
2022/10/24 04:59:00;;;;;;;8.60;1.60;;;;;;;;;;5051281;28;20030;-88
2022/10/24 05:01:26;;;;;;;1.85;1.30;;;15.70;99.90;;;;;;5065332;28;20025;-89
2022/10/24 05:03:52;;;;;;;1.55;1.42;;;15.70;99.90;;;;;;5032589;28;20028;-89
2022/10/24 05:06:18;;;;;;;8.63;1.60;;;;;;;;;;5048525;28;20101;-89
2022/10/24 05:08:44;;;;;;;2.72;1.00;;;15.60;99.90;;;;;;5064425;28;20033;-88
2022/10/24 05:11:10;;;;;;;9.20;1.90;;;;;;;;;;5048775;28;20027;-88
2022/10/24 05:13:37;;;;;;;2.65;1.45;;;15.60;99.90;;;;;;5047045;28;20040;-88
2022/10/24 05:16:04;;;;;;;6.03;1.70;;;15.60;99.90;;;;;;5066357;28;20023;-89
2022/10/24 05:18:31;;;;;;;4.20;1.25;;;;;;;;;;5056519;28;20022;-89
2022/10/24 05:20:58;;;;;;;4.57;1.67;;;15.60;99.90;;;;;;5048512;28;20021;-89
2022/10/24 05:23:25;;;;;;;4.65;1.63;;;;;;;;;;5065010;28;20473;-89
2022/10/24 05:25:51;;;;;;;4.13;2.17;;;;;;;;;;5045414;28;20026;-88
2022/10/24 05:28:17;;;;;;;2.08;1.00;;;;;;;;;;5031799;28;20049;-89
2022/10/24 05:30:43;;;;;;;2.65;1.23;;;15.50;99.90;;;;;;5048519;28;20495;-89
2022/10/24 05:33:09;;;;;;;4.65;1.38;;;15.60;99.90;;;;;;5065027;28;20029;-88
2022/10/24 05:35:36;;;;;;;1.85;0.95;;;;;;;;;;5064739;28;20045;-88
2022/10/24 05:38:02;;;;;;;3.53;1.98;;;;;;;;;;5046961;28;20027;-88
2022/10/24 05:40:28;;;;;;;2.10;1.15;;;15.60;99.90;;;;;;5064936;28;20032;-89
2022/10/24 05:42:54;;;;;;;4.20;1.25;;;15.60;99.90;;;;;;5059923;28;20029;-88
2022/10/24 05:45:20;;;;;;;3.83;1.40;;;15.60;99.90;;;;;;5063894;28;20039;-88
2022/10/24 05:47:46;;;;;;;6.18;2.33;;;;;;;;;;5048307;28;20410;-88
2022/10/24 05:50:12;;;;;;;8.63;2.17;;;15.60;99.90;;;;;;5048060;28;20052;-88
2022/10/24 05:52:41;;;;;;;1.48;0.85;;;;;;;;;;5047912;28;20029;-88
2022/10/24 05:55:08;;;;;;;5.10;2.17;;;15.60;99.90;;;;;;5047850;28;20110;-88
2022/10/24 05:57:35;;;;;;;4.28;1.42;;;15.60;99.90;;;;;;5049948;28;20390;-88
2022/10/24 06:00:01;;;;;;;6.53;1.50;;;15.60;99.90;;;;;;5057137;28;20017;-88
2022/10/24 06:02:37;;;;;;;5.15;1.98;;;;;;;;;;5060423;28;20071;-88
2022/10/24 06:05:04;;;;;;;5.22;1.60;;;15.60;99.90;;;;;;5052367;28;20496;-89
2022/10/24 06:07:30;;;;;;;6.85;1.50;;;;;;;;;;5047539;28;20029;-89
2022/10/24 06:09:57;;;;;;;3.90;1.17;;;15.60;99.90;;;;;;5064497;28;20036;-88
2022/10/24 06:12:23;;;;;;;8.07;1.95;;;;;;;;;;5064700;28;20029;-88
2022/10/24 06:14:49;;;;;;;4.85;1.63;;;15.60;99.90;;;;;;5060740;28;20465;-87
2022/10/24 06:17:15;;;;;;;12.38;1.92;;;15.60;99.90;;;;;;5044577;28;20029;-88
2022/10/24 06:19:42;;;;;;;4.80;2.45;;;15.50;99.90;;;;;;5062020;28;20016;-88
2022/10/24 06:22:09;;;;;;;6.70;1.50;;;;;;;;;;5068934;28;20044;-89
2022/10/24 06:24:36;;;;;;;4.60;1.77;;;15.60;99.90;;;;;;5068330;28;20032;-87
2022/10/24 06:27:03;;;;;;;3.72;2.00;;;15.50;99.90;;;;;;5064818;28;20055;-88
2022/10/24 06:29:29;;;;;;;5.13;1.65;;;15.50;99.90;;;;;;5066026;28;20040;-87
2022/10/24 06:31:56;;;;;;;4.47;1.48;;;15.50;99.90;;;;;;5069718;28;20033;-88
2022/10/24 06:34:21;;;;;;;12.02;4.18;;;15.50;99.90;;;;;;5085352;28;20032;-87
2022/10/24 06:36:47;;;;;;;4.78;1.27;;;15.50;99.90;;;;;;5044507;28;20040;-88
2022/10/24 06:39:13;;;;;;;2.70;1.10;;;15.50;99.90;;;;;;5059549;28;20021;-87
2022/10/24 06:41:39;;;;;;;5.15;1.63;;;15.50;99.90;;;;;;5050314;28;20037;-87
2022/10/24 06:44:13;;;;;;;5.10;2.10;;;;;;;;;;5082155;28;20024;-87
2022/10/24 06:46:39;;;;;;;2.50;1.38;;;;;;;;;;5067846;28;20039;-87
2022/10/24 06:49:05;;;;;;;8.85;1.60;;;15.50;99.90;;;;;;5048188;28;20047;-88
2022/10/24 06:51:31;;;;;;;3.78;1.20;;;;;;;;;;5064509;28;20021;-88
2022/10/24 06:53:58;;;;;;;7.03;1.13;;;15.50;99.90;;;;;;5047753;28;20124;-88
2022/10/24 06:56:24;;;;;;;9.38;2.35;;;15.50;99.90;;;;;;5082072;28;20033;-89
2022/10/24 06:58:50;;;;;;;3.30;1.48;;;15.50;99.90;;;;;;5067765;28;20020;-88
2022/10/24 07:01:23;;;;;;;9.23;1.40;;;15.50;99.90;;;;;;5084605;28;20057;-88
2022/10/24 07:03:50;;;;;;;;;;;15.50;99.90;;;;;;5082166;28;20025;-89
2022/10/24 07:06:16;;;;;;;4.90;2.10;;;15.50;99.90;;;;;;5065508;28;19917;-89
2022/10/24 07:08:42;;;;;;;5.43;1.50;;;15.50;99.90;;;;;;5076080;28;20119;-88
2022/10/24 07:11:09;;;;;;;335.17;65.85;;;15.60;99.90;;;;;;5067707;28;20062;-88
2022/10/24 07:13:35;;;;;;;167.20;31.10;;;15.60;99.90;;;;;;5081311;28;20032;-89
2022/10/24 07:16:01;;;;;;;141.40;24.58;;;;;;;;;;5050785;28;20099;-89
2022/10/24 07:18:27;;;;;;;60.78;12.02;;;15.60;99.90;;;;;;5065196;28;20032;-87
2022/10/24 07:20:53;;;;;;;49.78;9.57;;;15.60;99.90;;;;;;5049907;28;20017;-88
2022/10/24 07:23:19;;;;;;;33.72;6.53;;;;;;;;;;5078505;28;20027;-89
2022/10/24 07:25:45;;;;;;;12.77;4.10;;;15.60;99.90;;;;;;5088008;28;20027;-88
2022/10/24 07:28:11;;;;;;;15.98;4.43;;;15.60;99.90;;;;;;5070560;28;20072;-87
2022/10/24 07:30:38;;;;;;;13.65;4.30;;;15.60;99.90;;;;;;5080017;28;20049;-88
2022/10/24 07:33:05;;;;;;;12.30;1.88;;;15.60;99.90;;;;;;5087431;28;20088;-89
2022/10/24 07:35:30;;;;;;;8.15;3.65;;;15.60;99.90;;;;;;5070499;28;20045;-88
2022/10/24 07:37:56;;;;;;;13.95;3.13;;;15.70;99.90;;;;;;5070651;28;20044;-88
2022/10/24 07:40:22;;;;;;;6.47;3.00;;;15.70;99.90;;;;;;5068886;28;20441;-88
2022/10/24 07:42:51;;;;;;;8.38;3.03;;;15.70;99.90;;;;;;5070476;28;20035;-87
2022/10/24 07:45:17;;;;;;;5.45;1.58;;;15.60;99.90;;;;;;5085472;28;20024;-88
2022/10/24 07:47:43;;;;;;;15.48;2.50;;;;;;;;;;5070741;28;20033;-88
2022/10/24 07:50:10;;;;;;;14.57;1.83;;;15.70;99.90;;;;;;5047428;28;20032;-88
2022/10/24 07:52:36;;;;;;;7.97;2.30;;;15.70;99.90;;;;;;5067407;28;20043;-88
2022/10/24 07:55:01;;;;;;;6.63;1.85;;;15.70;99.90;;;;;;5061954;28;20064;-88
2022/10/24 07:57:28;;;;;;;9.82;2.53;;;;;;;;;;5050714;28;20082;-89
2022/10/24 07:59:53;;;;;;;10.23;1.70;;;15.70;99.90;;;;;;5072476;28;20020;-89
2022/10/24 08:02:19;;;;;;;10.38;2.13;;;15.80;99.90;;;;;;5086645;28;20028;-89
2022/10/24 08:04:45;;;;;;;3.95;1.90;;;15.70;99.90;;;;;;5058084;28;20025;-88
2022/10/24 08:07:14;;;;;;;7.22;1.88;;;15.80;99.90;;;;;;5066997;28;20037;-87
2022/10/24 08:09:43;;;;;;;7.63;2.22;;;15.70;99.90;;;;;;5067195;28;20025;-88
2022/10/24 08:12:09;;;;;;;22.63;3.42;;;15.70;99.90;;;;;;5067716;28;20052;-88
2022/10/24 08:14:37;;;;;;;10.60;1.67;;;15.80;99.90;;;;;;5067522;28;20025;-87
2022/10/24 08:17:03;;;;;;;7.03;2.20;;;;;;;;;;5065273;28;20048;-87
2022/10/24 08:19:30;;;;;;;8.68;2.85;;;15.80;99.90;;;;;;5066854;28;20091;-87
2022/10/24 08:21:56;;;;;;;6.45;1.95;;;15.90;99.90;;;;;;5067347;28;20021;-87
2022/10/24 08:24:22;;;;;;;9.35;2.10;;;15.90;99.90;;;;;;5082601;28;20025;-87
2022/10/24 08:26:48;;;;;;;12.68;4.63;;;15.90;99.90;;;;;;5085103;28;20564;-87
2022/10/24 08:29:20;;;;;;;9.65;2.55;;;16.00;99.90;;;;;;5053622;28;20075;-87
2022/10/24 08:31:49;;;;;;;66.03;14.73;;;16.00;99.90;;;;;;5052232;28;20040;-88
2022/10/24 08:34:15;;;;;;;60.92;12.40;;;15.90;99.90;;;;;;5083924;28;20021;-88
2022/10/24 08:36:42;;;;;;;30.63;7.70;;;16.00;99.90;;;;;;5083551;28;20040;-88
2022/10/24 08:39:08;;;;;;;29.50;6.65;;;16.00;99.90;;;;;;5068957;28;20025;-88
2022/10/24 08:41:42;;;;;;;12.55;3.72;;;16.00;99.90;;;;;;5068199;28;20041;-88
2022/10/24 08:44:20;;;;;;;15.90;3.03;;;16.00;99.90;;;;;;5065917;28;20025;-88
2022/10/24 08:46:58;;;;;;;14.65;3.42;;;16.00;99.90;;;;;;5068889;28;20025;-88
2022/10/24 08:49:47;;;;;;;11.02;2.25;;;16.00;99.90;;;;;;5072498;28;20037;-87
2022/10/24 08:52:36;;;;;;;11.70;3.50;;;16.00;99.90;;;;;;5085389;28;20101;-87
2022/10/24 08:55:14;;;;;;;6.72;2.13;;;16.00;99.90;;;;;;5075891;28;20040;-88
2022/10/24 08:57:44;;;;;;;11.25;2.97;;;16.00;99.90;;;;;;5067582;28;20033;-86
2022/10/24 09:00:19;;;;;;;7.90;2.78;;;16.10;99.90;;;;;;5066407;28;20036;-88
2022/10/24 09:02:54;;;;;;;7.57;2.17;;;16.10;99.90;;;;;;5049734;28;20029;-88
2022/10/24 09:05:28;;;;;;;8.50;1.58;;;16.10;99.90;;;;;;5067344;28;20037;-88
2022/10/24 09:08:01;;;;;;;6.80;2.20;;;16.10;99.90;;;;;;5066216;28;20055;-88
2022/10/24 09:10:48;;;;;;;7.50;1.88;;;16.10;99.90;;;;;;5049456;28;20036;-87
2022/10/24 09:13:16;;;;;;;6.35;2.63;;;16.20;99.90;;;;;;5049269;28;20083;-87
2022/10/24 09:15:44;;;;;;;10.95;3.45;;;16.20;99.90;;;;;;5049939;28;20028;-87
2022/10/24 09:18:21;;;;;;;6.60;2.13;;;16.30;99.90;;;;;;5049448;28;20064;-87
2022/10/24 09:20:49;;;;;;;8.75;1.88;;;16.40;99.90;;;;;;5066563;28;20029;-87
2022/10/24 09:23:16;;;;;;;8.65;2.97;;;16.40;99.90;;;;;;5033488;28;20041;-87
2022/10/24 09:25:47;;;;;;;2.53;1.27;;;16.40;99.90;;;;;;5066034;28;20451;-88
2022/10/24 09:28:13;;;;;;;10.57;3.40;;;16.40;99.90;;;;;;5059798;28;20065;-88
2022/10/24 09:30:39;;;;;;;12.98;2.95;;;16.40;99.90;;;;;;5050421;28;20081;-87
2022/10/24 09:33:26;;;;;;;12.48;3.45;;;16.50;99.90;;;;;;5048100;28;20095;-87
2022/10/24 09:35:55;;;;;;;8.07;2.40;;;16.50;99.90;;;;;;5050387;28;20053;-88
2022/10/24 09:38:35;;;;;;;8.88;1.65;;;16.50;99.90;;;;;;5059348;28;20041;-87
2022/10/24 09:41:13;;;;;;;4.40;2.45;;;16.50;99.90;;;;;;5065527;28;20029;-88
2022/10/24 09:43:52;;;;;;;10.45;2.25;;;16.50;99.90;;;;;;5067960;28;20036;-87
2022/10/24 09:46:21;;;;;;;6.15;2.70;;;16.40;99.90;;;;;;5065826;28;20389;-87
2022/10/24 09:48:54;;;;;;;9.63;2.55;;;16.40;99.90;;;;;;5065518;28;20481;-88
2022/10/24 09:51:41;;;;;;;3.40;2.22;;;16.40;99.90;;;;;;5048779;28;20029;-87
2022/10/24 09:54:19;;;;;;;10.07;1.65;;;16.40;99.90;;;;;;5045085;28;20391;-88
2022/10/24 09:56:46;;;;;;;14.60;2.58;;;16.40;99.90;;;;;;5044974;28;20079;-88
2022/10/24 09:59:42;;;;;;;5.88;2.45;;;16.50;99.90;;;;;;5028372;28;20033;-88
2022/10/24 10:02:38;;;;;;;7.43;2.95;;;16.60;99.90;;;;;;5053768;28;20076;-88
2022/10/24 10:05:04;;;;;;;7.30;3.05;;;16.60;99.90;;;;;;5075386;28;20036;-88
2022/10/24 10:07:30;;;;;;;8.07;2.53;;;;;;;;;;5065227;28;20038;-87
2022/10/24 10:10:01;;;;;;;7.47;1.58;;;16.60;99.90;;;;;;5046064;28;20025;-89
2022/10/24 10:12:39;;;;;;;8.70;2.75;;;16.60;99.90;;;;;;5054626;28;20029;-88
2022/10/24 10:15:35;;;;;;;5.82;2.03;;;16.60;99.90;;;;;;5055318;28;20036;-88
2022/10/24 10:18:20;;;;;;;5.28;2.08;;;16.50;99.90;;;;;;5076145;28;20025;-88
2022/10/24 10:20:56;;;;;;;6.07;2.28;;;16.60;99.90;;;;;;5062707;28;20028;-87
2022/10/24 10:23:30;;;;;;;4.95;2.22;;;16.60;99.90;;;;;;5064638;28;20036;-87
2022/10/24 10:26:11;;;;;;;6.60;2.30;;;16.80;99.90;;;;;;5064039;28;20037;-86
2022/10/24 10:28:44;;;;;;;5.53;1.73;;;17.00;99.90;;;;;;5064049;28;20049;-89
2022/10/24 10:31:11;;;;;;;5.93;1.88;;;17.20;99.90;;;;;;5066077;28;20037;-89
2022/10/24 10:33:55;;;;;;;7.18;1.75;;;17.30;99.90;;;;;;5064303;28;20029;-87
2022/10/24 10:36:33;;;;;;;9.80;2.13;;;17.30;99.90;;;;;;5064505;28;20033;-88
2022/10/24 10:39:28;;;;;;;12.15;2.50;;;17.20;99.90;;;;;;5065932;28;20032;-89
2022/10/24 10:42:00;;;;;;;13.32;2.80;;;17.30;99.90;;;;;;5064598;28;20025;-89
2022/10/24 10:44:47;;;;;;;7.63;2.65;;;17.20;99.90;;;;;;5065521;28;20130;-91
2022/10/24 10:47:22;;;;;;;6.25;2.08;;;17.30;99.90;;;;;;5064511;28;20021;-90
2022/10/24 10:49:54;;;;;;;11.43;1.95;;;17.20;99.90;;;;;;5064636;28;20108;-88
2022/10/24 10:52:43;;;;;;;5.53;1.60;;;17.10;99.90;;;;;;5064732;28;20029;-89
2022/10/24 10:55:33;;;;;;;6.00;2.40;;;17.00;99.90;;;;;;5064641;28;20037;-88
2022/10/24 10:58:05;;;;;;;16.95;2.85;;;17.00;99.90;;;;;;5068454;28;20036;-89
2022/10/24 11:00:47;;;;;;;5.78;1.48;;;17.00;99.90;;;;;;5070224;28;20025;-89
2022/10/24 11:03:32;;;;;;;5.18;2.08;;;16.80;99.90;;;;;;5069334;28;20029;-90
2022/10/24 11:06:19;;;;;;;7.78;1.75;;;16.90;99.90;;;;;;5069617;28;20025;-89
2022/10/24 11:09:16;;;;;;;10.95;2.28;;;16.90;99.90;;;;;;5068124;28;20036;-89
2022/10/24 11:11:48;;;;;;;5.95;2.47;;;16.90;99.90;;;;;;5063284;28;20041;-90
2022/10/24 11:14:28;;;;;;;17.88;4.03;;;16.90;99.90;;;;;;5068265;28;20040;-90
2022/10/24 11:17:00;;;;;;;6.97;2.13;;;16.90;99.90;;;;;;5067629;28;20036;-88
2022/10/24 11:19:32;;;;;;;8.15;2.28;;;16.80;99.90;;;;;;5067490;28;20478;-88
2022/10/24 11:22:03;;;;;;;9.43;2.88;;;16.90;99.90;;;;;;5067822;28;20063;-89
2022/10/24 11:24:36;;;;;;;6.82;2.40;;;17.00;99.90;;;;;;5067901;28;20124;-89
2022/10/24 11:27:25;;;;;;;7.72;3.60;;;17.00;99.90;;;;;;5067548;28;20075;-89
2022/10/24 11:30:15;;;;;;;50.00;9.77;;;17.00;99.90;;;;;;5050935;28;20501;-88
2022/10/24 11:32:47;;;;;;;;;;;17.00;99.90;;;;;;5068428;28;20033;-89
2022/10/24 11:35:21;;;;;;;50.08;11.07;;;17.00;99.90;;;;;;5051293;28;19912;-89
2022/10/24 11:37:51;;;;;;;26.95;7.35;;;17.00;99.90;;;;;;5050757;28;20115;-89
2022/10/24 11:40:22;;;;;;;25.77;6.57;;;17.00;99.90;;;;;;5067127;28;20033;-90
2022/10/24 11:43:19;;;;;;;17.33;4.28;;;17.00;99.90;;;;;;5067618;28;20537;-88
2022/10/24 11:45:52;;;;;;;11.00;3.08;;;17.00;99.90;;;;;;5068508;28;20033;-87
2022/10/24 11:48:41;;;;;;;13.07;2.45;;;16.90;99.90;;;;;;5068568;28;20033;-87
2022/10/24 11:51:38;;;;;;;9.65;2.45;;;17.00;99.90;;;;;;5050346;28;20108;-88
2022/10/24 11:54:15;;;;;;;5.07;2.03;;;16.90;99.90;;;;;;5066266;28;20040;-87
2022/10/24 11:56:50;;;;;;;5.63;2.45;;;17.00;99.90;;;;;;5067108;28;20055;-87
2022/10/24 11:59:23;;;;;;;5.78;2.38;;;17.00;99.90;;;;;;5068281;28;20367;-88
2022/10/24 12:01:55;;;;;;;2.78;1.58;;;17.00;99.90;;;;;;5067173;28;20048;-88
2022/10/24 12:04:59;;;;;;;6.05;1.60;;;17.00;99.90;;;;;;5068229;28;20108;-88
2022/10/24 12:07:25;;;;;;;6.40;1.52;;;;;;;;;;5066725;28;20032;-87
2022/10/24 12:10:19;;;;;;;10.07;2.63;;;17.10;99.90;;;;;;5049421;28;20116;-87
2022/10/24 12:12:47;;;;;;;7.13;2.17;;;17.40;99.90;;;;;;5067090;28;20025;-88
2022/10/24 12:15:44;;;;;;;6.30;1.98;;;17.60;99.90;;;;;;5066956;28;20063;-88
2022/10/24 12:18:11;;;;;;;10.23;2.47;;;;;;;;;;5083843;28;20021;-87
2022/10/24 12:20:40;;;;;;;5.88;2.15;;;17.30;99.90;;;;;;5050547;28;20052;-87
2022/10/24 12:23:07;;;;;;;8.07;2.08;;;;;;;;;;5066857;28;20032;-88
2022/10/24 12:25:40;;;;;;;11.45;1.92;;;17.30;99.90;;;;;;5066665;28;20033;-88
2022/10/24 12:28:21;;;;;;;12.73;2.35;;;17.20;99.90;;;;;;5066489;28;20057;-88
2022/10/24 12:31:19;;;;;;;10.75;2.53;;;17.10;99.90;;;;;;5066718;28;20039;-88
2022/10/24 12:34:06;;;;;;;7.95;1.73;;;17.30;99.90;;;;;;5062065;28;20029;-88
2022/10/24 12:37:07;;;;;;;5.70;2.58;;;17.30;99.90;;;;;;5064894;28;20058;-88
2022/10/24 12:39:44;;;;;;;7.20;1.77;;;17.70;99.90;;;;;;5051645;28;20048;-87
2022/10/24 12:42:33;;;;;;;8.98;2.22;;;17.50;99.90;;;;;;5050071;28;20127;-88
2022/10/24 12:44:59;;;;;;;3.03;1.63;;;;;;;;;;5049811;28;20029;-88
2022/10/24 12:47:29;;;;;;;7.50;3.30;;;17.30;99.90;;;;;;5066804;28;20027;-87
2022/10/24 12:50:16;;;;;;;4.82;1.58;;;17.40;99.90;;;;;;5066751;28;20032;-88
2022/10/24 12:52:45;;;;;;;3.35;1.67;;;17.10;99.90;;;;;;5066411;28;20025;-88
2022/10/24 12:55:36;;;;;;;4.88;1.40;;;17.20;99.90;;;;;;5066471;28;20029;-88
2022/10/24 12:58:19;;;;;;;4.53;2.17;;;17.00;99.90;;;;;;5066198;28;20025;-88
2022/10/24 13:00:58;;;;;;;8.27;2.45;;;16.90;99.90;;;;;;5067572;28;20063;-88
2022/10/24 13:03:52;;;;;;;3.60;2.43;;;16.90;99.90;;;;;;5067775;28;20055;-87
2022/10/24 13:06:56;;;;;;;11.63;2.33;;;16.90;99.90;;;;;;5067712;28;20307;-89
2022/10/24 13:09:43;;;;;;;10.70;4.10;;;16.80;99.90;;;;;;5067962;28;20070;-87
2022/10/24 13:12:22;;;;;;;14.20;5.63;;;16.80;99.90;;;;;;5066615;28;20033;-89
2022/10/24 13:15:34;;;;;;;14.57;6.47;;;16.80;99.90;;;;;;5058432;28;20033;-88
2022/10/24 13:18:18;;;;;;;15.90;6.55;;;16.80;99.90;;;;;;5045984;28;20029;-89
2022/10/24 13:20:49;;;;;;;10.38;3.08;;;16.90;99.90;;;;;;5047453;28;20030;-88
2022/10/24 13:23:23;;;;;;;13.00;4.05;;;16.90;99.90;;;;;;5047913;28;20081;-88
2022/10/24 13:25:58;;;;;;;16.65;4.22;;;16.90;99.90;;;;;;5046639;28;20041;-88
2022/10/24 13:28:24;;;;;;;7.15;3.35;;;16.40;99.90;;;;;;5051908;28;20112;-87
2022/10/24 13:31:09;;;;;;;5.75;2.85;;;16.90;99.90;;;;;;5065633;28;20029;-88
2022/10/24 13:33:37;;;;;;;8.68;3.40;;;;;;;;;;5065736;28;20114;-87